Time;durP1;ratioP1;P1;durP2;ratioP2;P2;SDS_P1;SDS_P2;PMS_P1;PMS_P2;Temp;Humidity;BMP_temperature;BMP_pressure;BME280_temperature;BME280_humidity;BME280_pressure;Samples;Min_cycle;Max_cycle;Signal;HPM_P1;HPM_P2
2021/05/25 00:00:31;;;;;;;4.17;2.47;;;;;;;15.80;88.34;101051.81;1756045;81;21312;-63
2021/05/25 00:03:07;;;;;;;3.43;2.60;;;;;;;15.82;88.37;101056.92;1764918;81;21229;-63
2021/05/25 00:05:39;;;;;;;2.55;2.30;;;;;;;15.82;88.48;101057.77;1755982;81;21174;-64
2021/05/25 00:08:12;;;;;;;3.50;2.20;;;;;;;15.82;88.43;101058.25;1756201;81;21341;-63
2021/05/25 00:10:46;;;;;;;3.60;2.58;;;;;;;15.81;88.28;101055.28;1751546;81;21272;-63
2021/05/25 00:13:19;;;;;;;6.20;2.42;;;;;;;15.79;88.27;101051.45;1747575;81;21252;-63
2021/05/25 00:15:55;;;;;;;3.67;2.70;;;;;;;15.78;88.44;101059.05;1745138;81;21785;-63
2021/05/25 00:18:28;;;;;;;7.60;2.65;;;;;;;15.79;88.58;101054.58;1735102;81;21680;-63
2021/05/25 00:21:02;;;;;;;3.20;2.62;;;;;;;15.78;88.62;101052.94;1739645;81;21290;-63
2021/05/25 00:23:35;;;;;;;5.45;2.40;;;;;;;15.77;88.65;101058.70;1730578;80;21817;-63
2021/05/25 00:26:09;;;;;;;5.47;2.60;;;;;;;15.76;88.63;101056.22;1734992;81;21138;-64
2021/05/25 00:28:42;;;;;;;4.25;2.80;;;;;;;15.74;88.61;101061.63;1738523;81;21814;-63
2021/05/25 00:31:16;;;;;;;3.90;2.42;;;;;;;15.73;88.70;101063.11;1746105;80;21221;-63
2021/05/25 00:33:49;;;;;;;5.30;2.58;;;;;;;15.70;88.75;101066.05;1747458;81;21191;-63
2021/05/25 00:36:24;;;;;;;4.95;2.25;;;;;;;15.68;88.75;101070.64;1765460;81;21260;-63
2021/05/25 00:38:57;;;;;;;4.35;2.67;;;;;;;15.65;88.79;101069.12;1743395;81;21286;-63
2021/05/25 00:41:29;;;;;;;3.10;2.70;;;;;;;15.63;88.75;101082.97;1763823;81;21249;-63
2021/05/25 00:44:11;;;;;;;10.20;2.58;;;;;;;15.60;88.81;101083.27;1738375;81;21281;-63
2021/05/25 00:46:40;;;;;;;5.55;2.55;;;;;;;15.58;88.95;101088.34;1715854;81;21294;-63
2021/05/25 00:49:15;;;;;;;5.17;2.40;;;;;;;15.57;89.04;101090.66;1763477;81;21229;-63
2021/05/25 00:51:48;;;;;;;3.77;2.85;;;;;;;15.55;89.10;101093.94;1756118;80;21796;-63
2021/05/25 00:54:22;;;;;;;7.72;2.52;;;;;;;15.50;89.07;101095.19;1755896;81;21263;-63
2021/05/25 00:56:57;;;;;;;2.57;2.33;;;;;;;15.48;89.12;101100.27;1747569;81;21191;-62
2021/05/25 00:59:30;;;;;;;3.80;2.70;;;;;;;15.46;89.21;101104.87;1764763;80;21717;-61
2021/05/25 01:02:03;;;;;;;5.23;2.83;;;;;;;15.44;89.26;101106.80;1765292;81;21300;-61
2021/05/25 01:04:36;;;;;;;2.87;2.27;;;;;;;15.42;89.35;101112.72;1730393;81;21841;-62
2021/05/25 01:07:12;;;;;;;5.25;2.60;;;;;;;15.40;89.25;101118.63;1747820;80;21272;-61
2021/05/25 01:09:45;;;;;;;10.72;3.30;;;;;;;15.39;89.25;101119.59;1750752;81;21253;-61
2021/05/25 01:12:18;;;;;;;3.60;2.33;;;;;;;15.36;89.33;101126.00;1765121;81;21178;-62
2021/05/25 01:14:57;;;;;;;4.92;2.65;;;;;;;15.35;89.32;101120.88;1724661;80;21828;-62
2021/05/25 01:17:28;;;;;;;3.77;2.70;;;;;;;15.29;89.16;101120.96;1729562;80;21179;-64
2021/05/25 01:20:05;;;;;;;4.00;2.85;;;;;;;15.27;89.10;101116.80;1729762;81;21268;-63
2021/05/25 01:22:38;;;;;;;4.53;2.80;;;;;;;15.22;89.06;101117.23;1756227;81;21256;-63
2021/05/25 01:25:13;;;;;;;6.53;2.87;;;;;;;15.21;89.13;101112.13;1718842;81;21873;-62
2021/05/25 01:27:58;;;;;;;3.98;2.50;;;;;;;15.18;89.11;101112.41;1739639;80;21157;-62
2021/05/25 01:30:36;;;;;;;4.33;2.70;;;;;;;15.15;88.98;101125.39;1764831;81;21240;-62
2021/05/25 01:33:10;;;;;;;5.35;2.30;;;;;;;15.10;89.04;101128.94;1745882;80;21317;-61
2021/05/25 01:35:43;;;;;;;9.00;2.83;;;;;;;15.07;89.01;101131.05;1734668;81;21280;-62
2021/05/25 01:38:16;;;;;;;3.58;2.90;;;;;;;15.04;89.16;101130.02;1756072;81;21212;-61
2021/05/25 01:40:51;;;;;;;4.05;2.83;;;;;;;15.01;89.20;101132.45;1715551;81;21251;-61
2021/05/25 01:43:24;;;;;;;4.50;3.62;;;;;;;14.99;89.29;101135.72;1756160;81;21332;-61
2021/05/25 01:45:57;;;;;;;5.08;3.25;;;;;;;14.98;89.27;101141.95;1752339;81;21823;-62
2021/05/25 01:48:31;;;;;;;5.92;3.05;;;;;;;14.96;89.38;101144.39;1713523;80;21807;-62
2021/05/25 01:51:04;;;;;;;2.90;2.60;;;;;;;14.94;89.43;101154.25;1747396;81;21244;-63
2021/05/25 01:53:37;;;;;;;5.15;3.30;;;;;;;14.93;89.44;101156.53;1758980;81;21261;-62
2021/05/25 01:56:11;;;;;;;;;;;;;;;14.91;89.50;101158.00;1767036;80;21265;-62
2021/05/25 01:58:43;;;;;;;3.72;3.00;;;;;;;14.92;89.63;101160.99;1740034;80;20231;-62
2021/05/25 02:01:16;;;;;;;3.27;2.97;;;;;;;14.87;89.60;101164.54;1723265;80;21148;-62
2021/05/25 02:03:49;;;;;;;5.37;3.00;;;;;;;14.87;89.86;101167.66;1758859;81;21285;-62
2021/05/25 02:06:24;;;;;;;6.33;3.27;;;;;;;14.89;90.13;101173.61;1759626;80;21760;-62
2021/05/25 02:08:58;;;;;;;5.33;2.83;;;;;;;14.92;90.36;101176.81;1736794;81;21277;-62
2021/05/25 02:11:31;;;;;;;3.70;3.00;;;;;;;14.97;90.57;101180.34;1759914;81;21555;-62
2021/05/25 02:14:04;;;;;;;;;;;;;;;15.02;90.61;101177.60;1758217;80;21337;-62
2021/05/25 02:16:38;;;;;;;6.08;3.60;;;;;;;15.06;90.58;101179.00;1764682;81;20232;-62
2021/05/25 02:19:11;;;;;;;5.03;3.67;;;;;;;15.08;90.74;101177.05;1738355;81;21340;-62
2021/05/25 02:21:44;;;;;;;7.67;3.33;;;;;;;15.14;90.84;101175.66;1742176;81;21904;-63
2021/05/25 02:24:18;;;;;;;5.25;3.58;;;;;;;15.19;90.84;101174.74;1756143;80;21281;-62
2021/05/25 02:26:51;;;;;;;7.83;3.70;;;;;;;15.26;90.81;101170.55;1761055;80;21327;-62
2021/05/25 02:29:24;;;;;;;3.95;3.25;;;;;;;15.32;90.85;101172.13;1737538;80;21222;-61
2021/05/25 02:31:57;;;;;;;4.60;3.27;;;;;;;15.40;90.85;101173.53;1737499;80;21912;-60
2021/05/25 02:34:30;;;;;;;8.35;3.25;;;;;;;15.48;90.82;101173.68;1748906;81;21253;-58
2021/05/25 02:37:03;;;;;;;5.92;3.17;;;;;;;15.60;90.96;101184.88;1751016;81;21350;-59
2021/05/25 02:39:36;;;;;;;5.97;3.00;;;;;;;15.72;91.14;101182.87;1725833;81;21943;-59
2021/05/25 02:42:09;;;;;;;4.47;3.50;;;;;;;15.83;90.95;101178.73;1763541;81;21176;-59
2021/05/25 02:44:43;;;;;;;5.67;2.80;;;;;;;15.93;90.70;101179.52;1714428;81;21226;-59
2021/05/25 02:47:16;;;;;;;5.30;3.72;;;;;;;16.02;90.48;101186.06;1750546;81;21752;-59
2021/05/25 02:49:49;;;;;;;5.70;3.30;;;;;;;16.17;90.52;101184.55;1756123;81;21848;-59
2021/05/25 02:52:22;;;;;;;4.65;2.90;;;;;;;16.37;90.43;101186.58;1764784;81;21233;-59
2021/05/25 02:54:55;;;;;;;4.78;2.85;;;;;;;16.53;90.33;101180.62;1765431;81;21252;-59
2021/05/25 02:57:29;;;;;;;;;;;;;;;16.63;89.74;101179.58;1740461;80;21828;-59
2021/05/25 03:00:02;;;;;;;5.53;2.60;;;;;;;16.66;89.10;101181.92;1733631;80;20227;-59
2021/05/25 03:02:35;;;;;;;5.42;2.83;;;;;;;16.65;88.37;101182.89;1755923;81;21167;-59
2021/05/25 03:05:11;;;;;;;5.25;2.52;;;;;;;16.67;87.96;101176.15;1729633;80;21290;-59
2021/05/25 03:07:44;;;;;;;3.72;2.67;;;;;;;16.72;87.76;101172.52;1747180;81;21308;-59
2021/05/25 03:10:18;;;;;;;3.47;2.77;;;;;;;16.82;87.62;101168.81;1761567;81;21189;-61
2021/05/25 03:12:52;;;;;;;5.90;2.60;;;;;;;17.01;87.35;101164.30;1747082;81;21269;-60
2021/05/25 03:15:34;;;;;;;3.05;2.62;;;;;;;17.22;86.70;101165.60;1729933;81;21294;-61
2021/05/25 03:18:09;;;;;;;4.55;2.37;;;;;;;17.42;85.84;101159.59;1713638;80;21287;-61
2021/05/25 03:20:43;;;;;;;;;;;;;;;17.63;84.79;101161.37;1748275;80;21304;-61
2021/05/25 03:23:16;;;;;;;;;;;;;;;17.84;83.81;101166.27;1725236;80;20186;-60
2021/05/25 03:25:50;;;;;;;6.33;3.17;;;;;;;18.04;82.80;101168.46;1738738;80;20175;-60
2021/05/25 03:28:23;;;;;;;5.25;2.75;;;;;;;18.28;81.81;101169.49;1744640;81;21280;-60
2021/05/25 03:30:58;;;;;;;3.65;2.50;;;;;;;18.64;80.63;101173.53;1743217;82;21783;-60
2021/05/25 03:33:31;;;;;;;4.22;2.80;;;;;;;19.07;79.14;101178.48;1741830;82;21970;-60
2021/05/25 03:36:05;;;;;;;6.00;2.52;;;;;;;19.53;77.52;101175.58;1735945;82;21209;-60
2021/05/25 03:38:37;;;;;;;;;;;;;;;19.99;75.36;101177.86;1725104;82;21371;-61
2021/05/25 03:41:10;;;;;;;6.05;2.75;;;;;;;20.49;73.95;101177.39;1685633;84;20268;-61
2021/05/25 03:43:46;;;;;;;5.20;2.70;;;;;;;20.97;72.25;101172.16;1724600;82;21862;-60
2021/05/25 03:46:19;;;;;;;4.08;2.75;;;;;;;21.46;70.19;101170.16;1724515;82;22724;-61
2021/05/25 03:48:54;;;;;;;4.10;2.80;;;;;;;21.86;67.63;101161.34;1734965;82;21292;-62
2021/05/25 03:54:19;;;;;;;2.30;2.08;;;;;;;22.01;64.58;101150.97;1724405;79;21226;-62
2021/05/25 03:56:56;;;;;;;4.42;2.42;;;;;;;21.54;64.44;101147.09;1727959;81;21337;-61
2021/05/25 03:59:27;;;;;;;3.62;2.50;;;;;;;21.07;64.40;101148.27;1739114;80;21276;-62
2021/05/25 04:02:01;;;;;;;3.77;2.33;;;;;;;20.71;65.40;101160.56;1753591;81;21268;-61
2021/05/25 04:04:35;;;;;;;3.25;2.37;;;;;;;20.57;66.41;101171.99;1728203;81;21239;-60
2021/05/25 04:07:09;;;;;;;2.65;2.27;;;;;;;20.89;66.84;101178.88;1741775;80;21177;-60
2021/05/25 04:09:42;;;;;;;2.05;1.85;;;;;;;21.74;66.33;101186.29;1757026;79;21251;-60
2021/05/25 04:12:15;;;;;;;6.17;1.98;;;;;;;22.70;64.11;101193.45;1752271;80;21283;-60
2021/05/25 04:14:47;;;;;;;2.92;2.50;;;;;;;23.54;61.77;101180.92;1716066;81;21301;-60
2021/05/25 04:17:21;;;;;;;4.08;2.30;;;;;;;24.32;59.66;101180.39;1744024;81;22207;-60
2021/05/25 04:19:54;;;;;;;7.05;2.27;;;;;;;25.07;57.98;101172.52;1758261;80;21304;-60
2021/05/25 04:22:27;;;;;;;4.83;2.00;;;;;;;25.72;55.31;101176.92;1747544;80;21388;-60
2021/05/25 04:25:00;;;;;;;2.85;1.50;;;;;;;26.29;52.92;101193.47;1747009;80;21798;-61
2021/05/25 04:27:33;;;;;;;4.67;1.80;;;;;;;26.82;51.08;101198.78;1746802;80;21311;-61
2021/05/25 04:30:07;;;;;;;4.60;1.90;;;;;;;27.33;49.83;101199.86;1748873;80;21310;-61
2021/05/25 04:32:40;;;;;;;5.72;2.08;;;;;;;27.69;48.54;101191.83;1756945;80;21196;-64
2021/05/25 04:35:14;;;;;;;4.67;2.00;;;;;;;27.97;46.72;101195.30;1748028;80;21845;-64
2021/05/25 04:37:47;;;;;;;4.95;1.72;;;;;;;27.90;45.99;101196.73;1751763;80;21328;-62
2021/05/25 04:40:20;;;;;;;;;;;;;;;27.73;45.75;101209.71;1729187;81;21818;-61
2021/05/25 04:42:53;;;;;;;3.55;1.75;;;;;;;27.99;45.31;101216.94;1740645;81;20278;-60
2021/05/25 04:45:26;;;;;;;;;;;;;;;27.80;44.63;101212.59;1772013;80;21205;-62
2021/05/25 04:47:59;;;;;;;2.62;1.57;;;;;;;27.92;44.74;101219.38;1768148;80;20270;-65
2021/05/25 04:50:31;;;;;;;;;;;;;;;28.34;43.75;101212.23;1759614;80;21846;-61
2021/05/25 04:53:05;;;;;;;2.37;1.77;;;;;;;28.87;42.50;101220.35;1765256;79;20233;-63
2021/05/25 04:55:39;;;;;;;2.08;1.40;;;;;;;29.27;41.56;101214.59;1724394;78;21890;-64
2021/05/25 04:58:11;;;;;;;;;;;;;;;29.74;40.44;101208.05;1766944;79;21292;-64
2021/05/25 05:00:45;;;;;;;3.72;1.90;;;;;;;30.22;39.63;101208.20;1770051;79;20258;-63
2021/05/25 05:03:18;;;;;;;2.87;1.57;;;;;;;30.54;38.66;101212.07;1755137;79;21281;-66
2021/05/25 05:05:51;;;;;;;;;;;;;;;30.95;37.47;101209.53;1754914;80;21209;-67
2021/05/25 05:08:24;;;;;;;5.85;1.95;;;;;;;31.40;36.35;101205.31;1733588;79;20325;-69
2021/05/25 05:10:59;;;;;;;4.40;1.55;;;;;;;31.64;35.35;101196.74;1746660;80;21279;-65
2021/05/25 05:13:32;;;;;;;2.85;1.50;;;;;;;31.82;35.30;101197.77;1743231;80;21218;-60
2021/05/25 05:16:05;;;;;;;;;;;;;;;32.07;33.68;101198.63;1753989;79;21204;-61
2021/05/25 05:18:39;;;;;;;3.65;1.50;;;;;;;32.16;33.38;101199.80;1748067;79;20239;-63
2021/05/25 05:21:13;;;;;;;2.77;1.10;;;;;;;32.19;33.08;101202.00;1744828;79;21373;-60
2021/05/25 05:23:46;;;;;;;2.92;1.60;;;;;;;32.35;32.64;101199.71;1759984;79;21208;-61
2021/05/25 05:26:18;;;;;;;;;;;;;;;32.58;32.84;101205.36;1769419;79;21314;-63
2021/05/25 05:28:51;;;;;;;3.15;1.15;;;;;;;33.04;31.28;101211.98;1754095;78;20256;-63
2021/05/25 05:31:24;;;;;;;;;;;;;;;33.30;31.10;101213.77;1740517;79;21322;-60
2021/05/25 05:33:57;;;;;;;3.22;1.22;;;;;;;33.57;30.02;101217.22;1751025;79;20664;-69
2021/05/25 05:36:29;;;;;;;;;;;;;;;33.56;29.32;101220.17;1758412;80;21200;-69
2021/05/25 05:39:02;;;;;;;2.62;1.20;;;;;;;33.72;29.90;101224.05;1761881;79;20279;-60
2021/05/25 05:41:35;;;;;;;2.17;1.37;;;;;;;34.00;29.97;101228.24;1747237;79;21264;-62
2021/05/25 05:44:09;;;;;;;5.58;1.20;;;;;;;34.33;29.02;101226.98;1743568;78;21908;-61
2021/05/25 05:46:43;;;;;;;6.67;1.50;;;;;;;34.54;28.24;101231.38;1759727;79;21304;-68
2021/05/25 05:49:16;;;;;;;1.80;1.10;;;;;;;34.87;27.21;101238.99;1731154;80;21361;-62
2021/05/25 05:51:50;;;;;;;4.97;1.70;;;;;;;35.14;27.91;101236.83;1761273;79;21216;-66
2021/05/25 05:54:23;;;;;;;4.00;1.52;;;;;;;35.41;27.49;101232.95;1751273;79;21350;-71
2021/05/25 05:56:57;;;;;;;7.90;1.55;;;;;;;35.58;27.14;101232.94;1743100;79;21398;-66
2021/05/25 05:59:31;;;;;;;8.38;1.27;;;;;;;35.70;25.81;101231.25;1755636;79;21310;-70
2021/05/25 06:02:05;;;;;;;2.33;1.00;;;;;;;35.60;25.44;101236.73;1736310;79;21441;-66
2021/05/25 06:04:38;;;;;;;2.75;0.93;;;;;;;35.70;25.28;101238.06;1745195;80;21303;-66
2021/05/25 06:07:11;;;;;;;5.08;1.00;;;;;;;35.93;25.71;101241.48;1740784;80;21202;-71
2021/05/25 06:09:47;;;;;;;3.80;1.10;;;;;;;35.82;24.84;101240.74;1752592;80;21284;-69
2021/05/25 06:12:20;;;;;;;4.40;1.12;;;;;;;35.28;25.37;101247.95;1743440;79;21225;-70
2021/05/25 06:14:56;;;;;;;3.25;1.12;;;;;;;34.73;26.37;101241.99;1745944;80;21320;-66
2021/05/25 06:17:30;;;;;;;3.65;1.50;;;;;;;34.38;26.87;101241.41;1754780;79;21448;-67
2021/05/25 06:20:05;;;;;;;2.67;0.90;;;;;;;34.35;27.60;101238.39;1713616;81;21846;-71
2021/05/25 06:22:39;;;;;;;4.67;1.27;;;;;;;34.09;26.52;101240.78;1706555;81;21139;-66
2021/05/25 06:25:16;;;;;;;1.17;0.90;;;;;;;33.40;27.14;101243.70;1710289;82;21652;-66
2021/05/25 06:27:49;;;;;;;5.75;1.10;;;;;;;32.69;28.25;101249.66;1717663;80;22517;-68
2021/05/25 06:30:23;;;;;;;2.70;1.02;;;;;;;31.84;28.30;101248.42;1704734;81;21353;-68
2021/05/25 06:32:58;;;;;;;3.12;0.93;;;;;;;31.48;29.01;101259.05;1686553;83;21311;-69
2021/05/25 06:35:32;;;;;;;1.75;1.00;;;;;;;31.94;28.82;101250.43;1738127;79;21203;-66
2021/05/25 06:38:06;;;;;;;8.80;1.22;;;;;;;32.75;26.48;101245.36;1722226;81;21217;-66
2021/05/25 06:40:39;;;;;;;;;;;;;;;33.47;26.81;101251.06;1653602;83;21322;-66
2021/05/25 06:43:11;;;;;;;3.52;1.00;;;;;;;33.89;27.00;101245.04;1704572;81;20251;-71
2021/05/25 06:45:47;;;;;;;2.33;1.07;;;;;;;33.96;26.61;101248.89;1720706;81;21252;-74
2021/05/25 06:48:21;;;;;;;4.42;1.00;;;;;;;33.65;25.96;101251.99;1711536;81;21406;-69
2021/05/25 06:51:06;;;;;;;2.20;0.98;;;;;;;33.02;27.60;101249.41;1723977;81;21322;-67
2021/05/25 06:53:37;;;;;;;3.65;1.05;;;;;;;32.50;28.55;101251.93;1728510;80;21254;-68
2021/05/25 06:56:10;;;;;;;9.30;1.32;;;;;;;32.32;29.10;101250.88;1729416;80;21291;-73
2021/05/25 06:58:44;;;;;;;8.50;1.70;;;;;;;32.09;29.50;101253.89;1733389;80;21323;-72
2021/05/25 07:01:18;;;;;;;4.65;1.22;;;;;;;31.82;29.85;101253.80;1723407;81;21155;-71
2021/05/25 07:03:53;;;;;;;1.62;0.80;;;;;;;31.49;30.14;101256.08;1714608;81;21347;-71
2021/05/25 07:06:27;;;;;;;3.27;1.02;;;;;;;31.24;30.75;101252.44;1721325;81;21323;-66
2021/05/25 07:09:05;;;;;;;2.95;0.90;;;;;;;31.11;31.29;101250.61;1699319;82;21358;-68
2021/05/25 07:11:39;;;;;;;2.45;0.90;;;;;;;31.08;30.68;101254.63;1686959;82;21396;-68
2021/05/25 07:14:13;;;;;;;4.33;0.98;;;;;;;31.42;29.52;101260.83;1684173;82;21295;-66
2021/05/25 07:16:46;;;;;;;3.77;1.35;;;;;;;31.76;29.23;101257.53;1721539;80;21176;-66
2021/05/25 07:19:20;;;;;;;2.20;1.35;;;;;;;32.08;29.74;101254.95;1720250;81;21343;-71
2021/05/25 07:21:53;;;;;;;;;;;;;;;32.23;29.15;101255.13;1723343;80;21973;-71
2021/05/25 07:24:26;;;;;;;4.58;1.40;;;;;;;32.17;29.27;101258.31;1727181;80;20281;-69
2021/05/25 07:26:59;;;;;;;5.37;0.75;;;;;;;32.15;27.83;101265.88;1722488;80;21279;-71
2021/05/25 07:29:32;;;;;;;2.98;1.00;;;;;;;32.24;26.55;101263.55;1760175;78;21332;-70
2021/05/25 07:32:08;;;;;;;1.67;0.80;;;;;;;32.16;26.33;101258.58;1722112;81;21861;-71
2021/05/25 07:34:42;;;;;;;4.03;1.05;;;;;;;31.95;26.44;101254.79;1685513;82;21412;-69
2021/05/25 07:37:16;;;;;;;1.90;0.70;;;;;;;31.64;26.87;101262.24;1744682;79;21221;-72
2021/05/25 07:39:51;;;;;;;2.90;0.98;;;;;;;31.76;26.97;101259.71;1751208;79;21920;-66
2021/05/25 07:42:25;;;;;;;;;;;;;;;31.98;26.35;101260.27;1739209;80;21358;-69
2021/05/25 07:44:58;;;;;;;3.20;0.70;;;;;;;32.29;26.46;101249.50;1754093;79;20502;-71
2021/05/25 07:47:34;;;;;;;4.60;1.00;;;;;;;32.37;26.06;101254.48;1742834;79;21287;-63
2021/05/25 07:50:14;;;;;;;4.72;1.12;;;;;;;32.21;24.99;101253.22;1767399;79;21153;-67
2021/05/25 07:52:53;;;;;;;3.22;0.90;;;;;;;31.94;26.29;101253.14;1761244;79;21345;-68
2021/05/25 07:55:30;;;;;;;4.03;0.98;;;;;;;31.77;26.55;101257.80;1751189;79;21256;-67
2021/05/25 07:58:04;;;;;;;4.83;1.07;;;;;;;31.58;26.27;101253.75;1769994;79;21875;-64
2021/05/25 08:00:37;;;;;;;5.62;0.80;;;;;;;31.33;26.89;101256.35;1744835;79;21341;-64
2021/05/25 08:03:11;;;;;;;2.67;0.90;;;;;;;31.14;26.75;101262.30;1750622;79;21304;-66
2021/05/25 08:05:44;;;;;;;5.40;1.05;;;;;;;30.81;27.41;101262.27;1752225;79;21900;-70
2021/05/25 08:08:19;;;;;;;1.50;0.80;;;;;;;30.62;27.58;101268.41;1755498;79;21268;-66
2021/05/25 08:10:53;;;;;;;2.77;0.80;;;;;;;30.42;27.46;101266.70;1765722;78;21156;-65
2021/05/25 08:13:27;;;;;;;6.80;1.00;;;;;;;30.19;27.91;101266.78;1758028;79;21334;-67
2021/05/25 08:16:01;;;;;;;2.75;0.90;;;;;;;30.07;29.25;101274.89;1749221;80;21121;-65
2021/05/25 08:21:07;;;;;;;4.53;2.12;;;;;;;29.81;29.23;101270.03;1761841;79;22306;-65
2021/05/25 08:23:42;;;;;;;2.35;1.00;;;;;;;30.26;28.83;101270.95;1758381;80;21342;-65
2021/05/25 08:26:15;;;;;;;2.30;1.12;;;;;;;30.91;28.25;101273.27;1751836;79;21329;-60
2021/05/25 08:28:49;;;;;;;2.75;1.20;;;;;;;31.64;26.50;101264.42;1763192;79;21167;-65
2021/05/25 08:31:22;;;;;;;4.08;1.02;;;;;;;32.23;25.77;101264.61;1758983;79;21347;-62
2021/05/25 08:33:55;;;;;;;6.87;1.70;;;;;;;32.70;24.28;101264.30;1770787;79;21307;-63
2021/05/25 08:36:31;;;;;;;1.62;0.90;;;;;;;33.08;24.06;101259.21;1773364;79;21818;-67
2021/05/25 08:39:06;;;;;;;3.75;0.80;;;;;;;33.35;23.16;101257.23;1752969;79;21222;-65
2021/05/25 08:41:40;;;;;;;1.82;0.80;;;;;;;33.58;22.65;101253.34;1759511;78;21744;-65
2021/05/25 08:44:13;;;;;;;3.20;0.82;;;;;;;33.57;22.64;101256.59;1752410;79;21859;-66
2021/05/25 08:46:49;;;;;;;3.12;0.80;;;;;;;33.49;22.50;101254.33;1747746;79;21716;-66
2021/05/25 08:49:21;;;;;;;3.40;1.00;;;;;;;33.51;23.22;101260.87;1761318;79;21342;-68
2021/05/25 08:51:54;;;;;;;3.87;0.82;;;;;;;33.49;22.79;101257.05;1759481;80;21653;-70
2021/05/25 08:54:28;;;;;;;5.35;0.80;;;;;;;33.39;21.97;101256.19;1762915;79;21405;-65
2021/05/25 08:57:01;;;;;;;3.42;0.72;;;;;;;33.28;22.89;101255.83;1753330;79;21316;-65
2021/05/25 08:59:37;;;;;;;12.35;1.15;;;;;;;33.21;22.56;101260.95;1756562;79;21237;-62
2021/05/25 09:02:13;;;;;;;7.95;6.00;;;;;;;32.98;23.55;101254.50;1769154;79;21873;-72
2021/05/25 09:05:07;;;;;;;3.17;0.80;;;;;;;32.86;22.73;101264.73;1761280;79;21327;-67
2021/05/25 09:07:56;;;;;;;3.70;0.80;;;;;;;32.67;22.52;101268.08;1718642;81;21203;-66
2021/05/25 09:10:41;;;;;;;1.60;0.50;;;;;;;32.13;23.26;101271.27;1743000;79;22214;-66
2021/05/25 09:13:18;;;;;;;1.40;0.70;;;;;;;31.69;23.50;101266.38;1750491;80;21839;-67
2021/05/25 09:15:54;;;;;;;2.42;0.72;;;;;;;31.51;24.06;101262.59;1753321;80;21316;-64
2021/05/25 09:18:30;;;;;;;4.33;1.20;;;;;;;31.63;23.71;101259.23;1744950;79;21302;-67
2021/05/25 09:21:06;;;;;;;2.60;0.60;;;;;;;31.55;24.96;101264.55;1759634;79;21338;-72
2021/05/25 09:23:44;;;;;;;4.40;0.80;;;;;;;31.59;25.34;101260.29;1744004;80;21332;-66
2021/05/25 09:26:39;;;;;;;3.92;0.80;;;;;;;31.78;24.12;101248.62;1765892;79;21439;-71
2021/05/25 09:29:12;;;;;;;6.20;0.90;;;;;;;31.86;23.33;101239.50;1737890;80;21265;-67
2021/05/25 09:31:51;;;;;;;6.67;1.02;;;;;;;31.91;23.84;101239.56;1723829;81;21239;-70
2021/05/25 09:34:24;;;;;;;1.80;1.05;;;;;;;31.95;24.36;101228.53;1742643;80;21287;-72
2021/05/25 09:37:11;;;;;;;1.57;0.53;;;;;;;31.84;24.84;101231.34;1746656;80;21216;-69
2021/05/25 09:40:08;;;;;;;1.87;0.85;;;;;;;31.54;24.69;101233.67;1750505;80;21291;-68
2021/05/25 09:42:42;;;;;;;3.58;1.32;;;;;;;31.08;24.54;101237.58;1747655;79;21247;-67
2021/05/25 09:45:16;;;;;;;;;;;;;;;30.72;25.16;101232.63;1754606;81;21307;-72
2021/05/25 09:47:53;;;;;;;2.08;0.82;;;;;;;30.38;26.37;101227.73;1775489;79;20304;-69
2021/05/25 09:50:26;;;;;;;1.98;0.60;;;;;;;30.13;26.39;101224.51;1757058;79;21306;-69
2021/05/25 09:53:19;;;;;;;2.05;0.90;;;;;;;29.61;26.62;101235.32;1760685;79;21307;-68
2021/05/25 09:56:03;;;;;;;3.10;0.90;;;;;;;29.05;27.23;101232.37;1762242;79;21299;-65
2021/05/25 09:58:41;;;;;;;2.15;0.55;;;;;;;28.73;28.23;101238.62;1720343;80;21792;-65
2021/05/25 10:01:14;;;;;;;4.08;0.70;;;;;;;28.58;27.32;101227.41;1747831;79;21329;-67
2021/05/25 10:03:52;;;;;;;2.45;0.70;;;;;;;28.43;27.53;101231.88;1768666;79;21291;-69
2021/05/25 10:06:25;;;;;;;4.25;0.90;;;;;;;28.26;27.77;101236.26;1760151;78;22252;-62
2021/05/25 10:09:00;;;;;;;2.40;0.70;;;;;;;28.10;28.01;101234.20;1752747;79;21178;-61
2021/05/25 10:11:33;;;;;;;4.55;0.80;;;;;;;28.03;28.30;101232.12;1731825;81;21543;-68
2021/05/25 10:14:07;;;;;;;1.02;0.62;;;;;;;28.02;28.84;101230.47;1709886;82;21157;-67
2021/05/25 10:16:44;;;;;;;2.62;0.78;;;;;;;28.07;27.94;101233.82;1757052;79;21811;-64
2021/05/25 10:21:56;;;;;;;4.37;0.70;;;;;;;28.11;29.09;101231.79;1717913;81;21268;-69
2021/05/25 10:24:32;;;;;;;3.05;0.90;;;;;;;28.14;29.62;101229.17;1731618;79;21359;-70
2021/05/25 10:27:07;;;;;;;2.47;0.80;;;;;;;28.18;28.56;101227.17;1768191;79;21780;-67
2021/05/25 10:29:39;;;;;;;;;;;;;;;28.18;28.12;101223.65;1759812;79;21353;-63
2021/05/25 10:32:24;;;;;;;2.20;0.80;;;;;;;28.18;27.70;101219.09;1756328;79;20285;-66
2021/05/25 10:35:05;;;;;;;2.40;0.90;;;;;;;28.08;27.75;101216.63;1761581;79;21318;-64
2021/05/25 10:37:39;;;;;;;2.22;0.60;;;;;;;27.94;28.78;101218.66;1751166;79;21922;-66
2021/05/25 10:40:15;;;;;;;6.47;1.15;;;;;;;27.81;29.05;101219.63;1754333;79;21206;-61
2021/05/25 10:42:50;;;;;;;7.87;1.05;;;;;;;27.63;29.01;101220.17;1717856;81;21251;-70
2021/05/25 10:45:26;;;;;;;3.90;1.12;;;;;;;27.53;29.29;101214.48;1740774;80;21303;-67
2021/05/25 10:48:07;;;;;;;;;;;;;;;27.51;29.59;101212.54;1756514;79;21212;-69
2021/05/25 10:50:46;;;;;;;3.10;0.90;;;;;;;27.55;30.31;101214.55;1738269;80;20304;-68
2021/05/25 10:53:27;;;;;;;0.70;0.70;;;;;;;27.55;30.31;101214.55;1722036;81;21204;-68
2021/05/25 10:55:59;;;;;;;2.40;1.15;;;;;;;27.63;29.29;101205.38;1754904;79;21206;-68
2021/05/25 10:58:35;;;;;;;3.50;0.93;;;;;;;27.62;28.94;101205.89;1735649;79;21807;-65
2021/05/25 11:01:10;;;;;;;2.22;0.78;;;;;;;27.49;28.78;101204.67;1751070;80;21282;-62
2021/05/25 11:03:46;;;;;;;12.07;1.17;;;;;;;27.33;28.87;101200.69;1764464;79;21240;-67
2021/05/25 11:06:33;;;;;;;1.80;0.70;;;;;;;27.25;29.57;101198.28;1747198;79;21189;-68
2021/05/25 11:09:28;;;;;;;4.15;0.70;;;;;;;27.31;29.99;101195.23;1772858;79;21813;-63
2021/05/25 11:12:17;;;;;;;3.15;0.82;;;;;;;26.99;29.24;101206.59;1708059;81;21303;-64
2021/05/25 11:15:17;;;;;;;0.90;0.53;;;;;;;26.99;29.24;101206.59;1715243;80;21349;-61
2021/05/25 11:17:50;;;;;;;1.62;0.72;;;;;;;26.87;30.11;101207.01;1748639;79;21849;-65
2021/05/25 11:20:52;;;;;;;1.25;0.60;;;;;;;26.88;31.22;101205.15;1747781;79;21243;-67
2021/05/25 11:23:43;;;;;;;2.35;0.70;;;;;;;27.04;29.94;101193.84;1767592;79;21256;-61
2021/05/25 11:26:58;;;;;;;1.92;0.55;;;;;;;27.04;29.94;101193.84;1713146;79;21331;-62
2021/05/25 11:29:40;;;;;;;3.00;1.80;;;;;;;27.08;29.97;101194.55;1733694;79;21291;-70
2021/05/25 11:32:15;;;;;;;5.62;2.45;;;;;;;27.08;29.97;101194.55;1739911;80;21268;-69
2021/05/25 11:34:59;;;;;;;1.57;0.85;;;;;;;27.12;29.53;101190.36;1723058;81;21233;-66
2021/05/25 11:37:38;;;;;;;3.65;0.65;;;;;;;27.17;29.39;101182.45;1717963;81;21303;-64
2021/05/25 11:40:19;;;;;;;2.20;0.70;;;;;;;27.28;29.94;101183.57;1702150;81;21302;-68
2021/05/25 11:42:52;;;;;;;1.52;0.88;;;;;;;27.40;29.92;101191.23;1690229;82;21883;-64
2021/05/25 11:45:28;;;;;;;1.60;0.60;;;;;;;27.52;29.41;101191.30;1699698;82;21207;-61
2021/05/25 11:48:08;;;;;;;3.00;0.70;;;;;;;27.49;29.86;101185.84;1718741;81;21292;-63
2021/05/25 11:50:48;;;;;;;2.85;0.57;;;;;;;27.49;29.86;101185.84;1725704;81;21331;-61
2021/05/25 11:53:21;;;;;;;5.72;0.90;;;;;;;27.41;28.39;101185.34;1743749;79;21309;-64
2021/05/25 11:55:53;;;;;;;;;;;;;;;27.18;28.96;101189.98;1754521;79;21343;-62
2021/05/25 11:58:26;;;;;;;5.42;0.80;;;;;;;26.97;28.96;101185.02;1738293;79;20702;-61
2021/05/25 12:00:59;;;;;;;2.08;0.60;;;;;;;26.77;30.41;101195.12;1755147;79;21259;-59
2021/05/25 12:03:41;;;;;;;2.95;0.53;;;;;;;26.68;30.29;101195.87;1725982;81;21753;-60
2021/05/25 12:06:17;;;;;;;7.95;0.82;;;;;;;26.56;29.96;101193.58;1755407;79;21807;-63
2021/05/25 12:08:50;;;;;;;5.87;0.70;;;;;;;26.56;30.53;101193.58;1732001;80;21284;-62
2021/05/25 12:11:42;;;;;;;4.50;0.90;;;;;;;26.56;30.53;101193.58;1752526;79;21229;-67
2021/05/25 12:14:16;;;;;;;2.50;0.90;;;;;;;26.65;29.60;101186.92;1755455;79;21904;-63
2021/05/25 12:16:52;;;;;;;;;;;;;;;26.65;29.60;101186.92;1760088;79;21346;-64